Messwerte Chicago Midway

Temperatur

Temperatur
°C
1574290800 17.00 17.00 9
1574294400 18.00 18.00 8
1574298000 19.00 19.00 8
1574301600 20.00 20.00 7
1574305200 21.00 21.00 7
1574308800 22.00 22.00 6
1574312400 23.00 23.00 6
1574316000 0.00 0.00 6
1574319600 1.00 1.00 7
1574323200 2.00 2.00 7
1574326800 3.00 3.00 8
1574330400 4.00 4.00 7
1574334000 5.00 5.00 9
1574337600 6.00 6.00 8
1574341200 7.00 7.00
1574344800 8.00 8.00 9
1574348400 9.00 9.00 9
1574352000 10.00 10.00 11
1574355600 11.00 11.00
1574359200 12.00 12.00 12
1574362800 13.00 13.00 13
1574366400 14.00 14.00 12
1574370000 15.00 15.00 11
1574373600 16.00 16.00 10

Aktuellste Messwerte

Wettercharakter
Wetter: bedeckt
Temperatur
9 °C
Feuchtigkeit
75 %
Wind
30 km/hWindrichtung: West
Böen
45 km/h
Luftdruck
1010 hPa
Messzeit: 21. November 2019, 17.00Datenquelle: METAR

Weitere Messstationen in der Nähe

Messstation Temperatur Entfernung
Chicago O'Hare 8 °C 25 km
De Kalb 6 °C 27 km
Chicago 8 °C 32 km
Gary Regional 9 °C 33 km
Chicago/Romeoville 7 °C 35 km
Chicago / Wheeling 8 °C 40 km
Chicago / West Chicago 7 °C 44 km

Wind

Windrichtung Böen Mittelwind
° km/h km/h
1574290800 17.00 16.00 - 17.00 140° 10
1574294400 18.00 17.00 - 18.00 150° 15
1574298000 19.00 18.00 - 19.00 160° 20
1574301600 20.00 19.00 - 20.00 170° 30 20
1574305200 21.00 20.00 - 21.00 170° 50 25
1574308800 22.00 21.00 - 22.00 180° 35 20
1574312400 23.00 22.00 - 23.00 170° 30 20
1574316000 0.00 23.00 - 0.00 170° 20
1574319600 1.00 0.00 - 1.00 170° 15
1574323200 2.00 1.00 - 2.00 170° 35 25
1574326800 3.00 2.00 - 3.00 190° 35 25
1574330400 4.00 3.00 - 4.00 180° 25
1574334000 5.00 4.00 - 5.00 190° 45 30
1574337600 6.00 5.00 - 6.00 190° 45 25
1574341200 7.00 6.00 - 7.00
1574344800 8.00 7.00 - 8.00 190° 45 25
1574348400 9.00 8.00 - 9.00 190° 45 30
1574352000 10.00 9.00 - 10.00 200° 50 30
1574355600 11.00 10.00 - 11.00
1574359200 12.00 11.00 - 12.00 220° 50 30
1574362800 13.00 12.00 - 13.00 240° 60 40
1574366400 14.00 13.00 - 14.00 270° 70 40
1574370000 15.00 14.00 - 15.00 270° 55 40
1574373600 16.00 15.00 - 16.00 280° 55 35

Ihre Wetterstation

Fehlt Ihre Wetterstation auf unserem Portal?

Schreiben Sie an network@meteonews.ch

Klima

Wann ist es am wärmsten? Wann regnet es am wenigsten? Unsere Klimadaten geben Auskunft.